Chesapeake — WDD3041 — position and weather

sailwx.info

Track history (hours):
 
Tides and Currents Weather Stations Pressure Air Temp Water Temp Dewpoint Dewpoint Depression Visibility Wind Speed Wind Dir Waves Ship Positions

Chesapeake

Owner: Vane Line Bunkering, Baltimore, MD. More information available from US FCC via Universal Licensing System and Coast Guard Vessel Documentation Center.

Last reported at 2016-Aug-31 03:33 UTC. Time now 2016-Aug-31 04:19 UTC.
Position N 39°54' W 075°12'.

Length 34 m.

Type: Tug. MMSI: 367123040.

Date/timePositionNaut miles runAvg speedWind from/ knotsBaromVisibWave heightAir tempDewpointWater temp
2016-Aug-31 03:33N 39°54' W 075°12'0 0.0
2016-Aug-31 02:34N 39°54' W 075°12'0 0.0
2016-Aug-31 01:33N 39°54' W 075°12'0 0.0
2016-Aug-31 00:33N 39°54' W 075°12'0 0.0
2016-Aug-30 23:34N 39°54' W 075°12'0 0.0
2016-Aug-30 22:33N 39°54' W 075°12'0 0.0
2016-Aug-30 21:33N 39°54' W 075°12'0 0.0
2016-Aug-30 20:33N 39°54' W 075°12'0 0.0
2016-Aug-30 19:33N 39°54' W 075°12'1 0.7
2016-Aug-30 18:33N 39°53' W 075°12'0 0.0
2016-Aug-30 17:33N 39°53' W 075°12'0 0.0
2016-Aug-30 16:33N 39°53' W 075°12'1 0.7
2016-Aug-30 15:33N 39°54' W 075°12'0 0.0
2016-Aug-30 14:34N 39°54' W 075°12'0 0.0
2016-Aug-30 13:33N 39°54' W 075°12'4 3.9
2016-Aug-30 12:33N 39°51' W 075°16'2 2.3
2016-Aug-30 11:33N 39°52' W 075°13'0 0.0
2016-Aug-30 10:33N 39°52' W 075°13'0 0.0
2016-Aug-30 09:33N 39°52' W 075°13'0 0.0
2016-Aug-30 08:33N 39°52' W 075°13'0 0.0
2016-Aug-30 07:34N 39°52' W 075°13'0 0.0
2016-Aug-30 06:33N 39°52' W 075°13'0 0.0
2016-Aug-30 05:33N 39°52' W 075°13'0 0.2
2016-Aug-30 04:33N 39°52' W 075°13'0 0.0
2016-Aug-30 03:33N 39°52' W 075°13'0 0.0
2016-Aug-30 02:33N 39°52' W 075°13'0 0.0
2016-Aug-30 01:34N 39°52' W 075°13'0 0.0
2016-Aug-30 00:33N 39°52' W 075°13'0 0.1
2016-Aug-29 23:33N 39°52' W 075°13'0 0.1
2016-Aug-29 22:33N 39°52' W 075°13'0 0.0
2016-Aug-29 21:34N 39°52' W 075°13'0 0.0
2016-Aug-29 20:34N 39°52' W 075°13'0 0.1
2016-Aug-29 19:33N 39°52' W 075°13'0 0.0
2016-Aug-29 18:33N 39°52' W 075°13'0 0.1
2016-Aug-29 17:33N 39°52' W 075°13'0 0.1
2016-Aug-29 16:33N 39°52' W 075°13'0 0.0
2016-Aug-29 15:33N 39°52' W 075°13'0 0.0
2016-Aug-29 14:33N 39°52' W 075°13'0 0.1
2016-Aug-29 13:33N 39°52' W 075°13'0 0.0
2016-Aug-29 12:34N 39°52' W 075°13'0 0.0
2016-Aug-29 11:33N 39°52' W 075°13'0 0.2
2016-Aug-29 10:33N 39°52' W 075°13'0 0.1
2016-Aug-29 09:33N 39°52' W 075°13'0 0.0
2016-Aug-29 08:33N 39°52' W 075°13'0 0.0
2016-Aug-29 07:33N 39°52' W 075°13'0 0.0
2016-Aug-29 06:33N 39°52' W 075°13'0 0.1
2016-Aug-29 05:34N 39°52' W 075°13'0 0.1
2016-Aug-29 04:33N 39°52' W 075°13'0 0.1
2016-Aug-29 03:33N 39°52' W 075°13'0 0.0
2016-Aug-29 02:33N 39°52' W 075°13'0 0.0
2016-Aug-29 01:33N 39°52' W 075°13'0 0.0
2016-Aug-29 00:33N 39°52' W 075°13'0 0.0
2016-Aug-28 23:33N 39°52' W 075°13'0 0.0
2016-Aug-28 22:33N 39°52' W 075°13'0 0.2
2016-Aug-28 21:33N 39°52' W 075°13'0 0.2
2016-Aug-28 20:33N 39°52' W 075°13'3 2.7
2016-Aug-28 19:33N 39°55' W 075°13'0 0.0
2016-Aug-28 18:33N 39°55' W 075°13'0 0.0
2016-Aug-28 17:33N 39°55' W 075°13'0 0.0
2016-Aug-28 16:33N 39°55' W 075°13'0 0.0
2016-Aug-28 15:33N 39°55' W 075°13'0 0.0
2016-Aug-28 14:33N 39°55' W 075°13'1 0.5
2016-Aug-28 13:33N 39°54' W 075°13'2 2.5
2016-Aug-28 12:33N 39°52' W 075°14'2 2.4
2016-Aug-28 11:33N 39°54' W 075°13'6 5.7
2016-Aug-28 10:33N 39°51' W 075°19'10 9.7
2016-Aug-28 09:33N 39°45' W 075°29'9 8.9
2016-Aug-28 08:33N 39°37' W 075°35'6 5.9
2016-Aug-28 07:33N 39°33' W 075°40'8 8.1
2016-Aug-28 06:33N 39°32' W 075°50'9 9.0
2016-Aug-28 05:33N 39°27' W 075°60'9 9.4
2016-Aug-28 04:33N 39°21' W 076°10'9 8.8
2016-Aug-28 03:33N 39°13' W 076°15'8 7.9
2016-Aug-28 02:33N 39°10' W 076°24'8 8.1
2016-Aug-28 01:33N 39°13' W 076°33'1 1.2
2016-Aug-28 00:33N 39°13' W 076°35'0 0.0
2016-Aug-27 23:33N 39°13' W 076°35'0 0.0
2016-Aug-27 22:33N 39°13' W 076°35'0 0.0
2016-Aug-27 21:33N 39°13' W 076°35'0 0.0
2016-Aug-27 20:33N 39°13' W 076°35'0 0.0
2016-Aug-27 19:33N 39°13' W 076°35'0 0.0
2016-Aug-27 18:33N 39°13' W 076°35'0 0.0
2016-Aug-27 17:33N 39°13' W 076°35'0 0.0
2016-Aug-27 16:33N 39°13' W 076°35'0 0.0
2016-Aug-27 15:33N 39°13' W 076°35'1 1.2
2016-Aug-27 14:33N 39°13' W 076°34'2 1.6
2016-Aug-27 13:32N 39°15' W 076°33'0 0.0
2016-Aug-27 12:33N 39°15' W 076°33'0 0.0
2016-Aug-27 11:33N 39°15' W 076°33'0 0.0
2016-Aug-27 10:33N 39°15' W 076°33'0 0.0
2016-Aug-27 09:33N 39°15' W 076°33'0 0.0
2016-Aug-27 08:33N 39°15' W 076°33'0 0.0
2016-Aug-27 07:33N 39°15' W 076°33'0 0.0
2016-Aug-27 06:33N 39°15' W 076°33'0 0.0
2016-Aug-27 04:33N 39°15' W 076°33'0 0.0
2016-Aug-27 03:33N 39°15' W 076°33'0 0.0
2016-Aug-27 02:33N 39°15' W 076°34'0 0.1
2016-Aug-27 01:33N 39°15' W 076°33'0 0.0
2016-Aug-27 00:33N 39°15' W 076°33'0 0.0
2016-Aug-26 23:33N 39°15' W 076°33'0 0.1
2016-Aug-26 22:33N 39°15' W 076°33'0 0.1
2016-Aug-26 21:33N 39°15' W 076°33'0 0.0
2016-Aug-26 20:33N 39°15' W 076°33'0 0.0
2016-Aug-26 19:33N 39°15' W 076°33'0 0.0
2016-Aug-26 18:32N 39°15' W 076°33'0 0.0
2016-Aug-26 17:33N 39°15' W 076°33'0 0.0
2016-Aug-26 16:33N 39°15' W 076°33'0 0.0
2016-Aug-26 15:33N 39°15' W 076°33'0 0.0
2016-Aug-26 14:33N 39°15' W 076°33'1 0.7
2016-Aug-26 13:33N 39°14' W 076°34'0 0.0
2016-Aug-26 12:32N 39°14' W 076°34'0 0.1
2016-Aug-26 07:25N 39°15' W 076°34'0 0.0
2016-Aug-26 06:27N 39°15' W 076°34'0 0.0
2016-Aug-26 04:31N 39°15' W 076°34'0 0.0
2016-Aug-25 22:13N 39°15' W 076°34'0 0.0
2016-Aug-25 21:22N 39°15' W 076°34'0 0.0
2016-Aug-25 20:27N 39°15' W 076°34'0 0.0
2016-Aug-25 19:30N 39°15' W 076°34'0 0.0
2016-Aug-25 16:30N 39°15' W 076°34'0 0.0
2016-Aug-25 15:29N 39°15' W 076°34'0 0.0
2016-Aug-25 14:32N 39°15' W 076°34'0 0.0
2016-Aug-25 13:33N 39°15' W 076°34'0 0.0
2016-Aug-25 12:33N 39°15' W 076°34'0 0.3
2016-Aug-25 11:33N 39°14' W 076°34'0 0.0
2016-Aug-25 10:33N 39°14' W 076°34'1 0.8
2016-Aug-25 09:33N 39°15' W 076°33'0 0.0
2016-Aug-25 08:33N 39°15' W 076°33'0 0.0
2016-Aug-25 07:31N 39°15' W 076°33'0 0.0
2016-Aug-25 06:33N 39°15' W 076°33'0 0.0
2016-Aug-25 04:31N 39°15' W 076°33'0 0.0
2016-Aug-25 03:33N 39°15' W 076°33'0 0.0
2016-Aug-25 02:33N 39°15' W 076°33'1 0.9
2016-Aug-25 01:33N 39°14' W 076°33'9 9.2
2016-Aug-25 00:32N 39°10' W 076°22'9 9.4
2016-Aug-24 23:33N 39°16' W 076°14'1110.8
2016-Aug-24 22:33N 39°24' W 076°04'1110.9
2016-Aug-24 21:33N 39°31' W 075°53'9 9.1
2016-Aug-24 20:33N 39°33' W 075°42'7 6.8
2016-Aug-24 19:33N 39°35' W 075°34'6 6.3
2016-Aug-24 18:33N 39°41' W 075°31'8 7.6
2016-Aug-24 17:33N 39°48' W 075°26'9 9.3
2016-Aug-24 16:33N 39°51' W 075°15'1 0.9
2016-Aug-24 15:33N 39°51' W 075°14'2 1.8
2016-Aug-24 14:34N 39°51' W 075°16'0 0.0
2016-Aug-24 13:33N 39°51' W 075°16'2 2.4
2016-Aug-24 12:33N 39°52' W 075°13'6 6.2
2016-Aug-24 11:33N 39°57' W 075°08'0 0.1
2016-Aug-24 10:33N 39°57' W 075°08'0 0.0
2016-Aug-24 09:33N 39°57' W 075°08'0 0.0
2016-Aug-24 08:33N 39°57' W 075°08'0 0.0
2016-Aug-24 07:33N 39°57' W 075°08'0 0.1
2016-Aug-24 06:33N 39°57' W 075°08'0 0.0
2016-Aug-24 04:33N 39°57' W 075°08'0 0.0
2016-Aug-24 03:33N 39°57' W 075°08'0 0.0
2016-Aug-24 02:33N 39°57' W 075°08'0 0.0
2016-Aug-24 01:33N 39°57' W 075°08'0 0.0
2016-Aug-24 00:33N 39°57' W 075°08'0 0.1
2016-Aug-23 23:33N 39°57' W 075°08'0 0.1
2016-Aug-23 22:33N 39°57' W 075°08'0 0.0
2016-Aug-23 21:33N 39°57' W 075°08'0 0.0
2016-Aug-23 20:33N 39°57' W 075°08'0 0.0
2016-Aug-23 19:33N 39°57' W 075°08'0 0.0
2016-Aug-23 18:33N 39°57' W 075°08'0 0.1
2016-Aug-23 17:34N 39°57' W 075°08'0 0.0
2016-Aug-23 16:33N 39°57' W 075°08'0 0.0
2016-Aug-23 14:34N 39°57' W 075°08'0 0.0
2016-Aug-23 13:33N 39°57' W 075°08'0 0.0
2016-Aug-23 12:34N 39°57' W 075°08'0 0.0
2016-Aug-23 11:34N 39°57' W 075°08'0 0.1
2016-Aug-23 10:34N 39°57' W 075°08'0 0.0
2016-Aug-23 09:34N 39°57' W 075°08'0 0.0
2016-Aug-23 08:34N 39°57' W 075°08'0 0.0
2016-Aug-23 07:34N 39°57' W 075°08'0 0.0
2016-Aug-23 06:34N 39°57' W 075°08'0 0.1
2016-Aug-23 05:34N 39°57' W 075°08'0 0.1
2016-Aug-23 04:33N 39°57' W 075°08'0 0.0
2016-Aug-23 03:34N 39°57' W 075°08'0 0.0
2016-Aug-23 02:34N 39°57' W 075°08'0 0.0
2016-Aug-23 01:34N 39°57' W 075°08'0 0.0
2016-Aug-23 00:33N 39°57' W 075°08'0 0.0
2016-Aug-22 23:33N 39°57' W 075°08'0 0.1
2016-Aug-22 22:33N 39°57' W 075°08'0 0.1
2016-Aug-22 21:33N 39°57' W 075°08'0 0.0
2016-Aug-22 20:33N 39°57' W 075°08'0 0.0
2016-Aug-22 19:34N 39°57' W 075°08'0 0.0
2016-Aug-22 18:33N 39°57' W 075°08'0 0.1
2016-Aug-22 17:33N 39°57' W 075°08'0 0.1
2016-Aug-22 16:34N 39°57' W 075°08'0 0.0
2016-Aug-22 15:34N 39°57' W 075°08'0 0.0
2016-Aug-22 14:34N 39°57' W 075°08'0 0.0
2016-Aug-22 13:34N 39°57' W 075°08'0 0.0
2016-Aug-22 12:34N 39°57' W 075°08'0 0.1
2016-Aug-22 11:34N 39°56' W 075°08'0 0.0
2016-Aug-22 10:33N 39°57' W 075°08'0 0.1
2016-Aug-22 09:34N 39°57' W 075°08'0 0.1
2016-Aug-22 08:33N 39°57' W 075°08'0 0.0
2016-Aug-22 07:33N 39°57' W 075°08'0 0.0
2016-Aug-22 06:34N 39°57' W 075°08'7 7.0
2016-Aug-22 05:33N 39°51' W 075°14'1111.3
2016-Aug-22 04:34N 39°47' W 075°28'7 6.8
2016-Aug-22 03:33N 39°41' W 075°31'9 9.3
2016-Aug-22 02:34N 39°31' W 075°33'9 9.0
2016-Aug-22 01:33N 39°23' W 075°29'9 9.0
2016-Aug-22 00:33N 39°16' W 075°21'9 9.3
2016-Aug-21 23:33N 39°09' W 075°14'9 8.8
2016-Aug-21 22:32N 39°01' W 075°09'8 8.3
2016-Aug-21 21:33N 38°53' W 075°04'7 7.2
2016-Aug-21 20:34N 38°48' W 074°58'10 8.8
2016-Aug-21 19:27N 38°53' W 074°46'49 9.7
2016-Aug-21 14:25N 39°31' W 074°07'910.0
2016-Aug-21 13:33N 39°38' W 074°02'10 9.9
2016-Aug-21 12:34N 39°48' W 073°59'10 9.9
2016-Aug-21 11:33N 39°58' W 073°56'32 9.6
2016-Aug-21 08:14N 40°30' W 073°56'710.4
2016-Aug-21 07:33N 40°35' W 074°02'1110.6
2016-Aug-21 06:34N 40°45' W 074°01'  
Track history (hours):
 
Tides and Currents Weather Stations Pressure Air Temp Water Temp Dewpoint Dewpoint Depression Visibility Wind Speed Wind Dir Waves Ship Positions

Chesapeake

Owner: Vane Line Bunkering, Baltimore, MD. More information available from US FCC via Universal Licensing System and Coast Guard Vessel Documentation Center.

Last reported at 2016-Aug-31 03:33 UTC. Time now 2016-Aug-31 04:19 UTC.
Position N 39°54' W 075°12'.

Length 34 m.

Type: Tug. MMSI: 367123040.

Date/timePositionNaut miles runAvg speedWind from/ knotsBaromVisibWave heightAir tempDewpointWater temp
2016-Aug-31 03:33N 39°54' W 075°12'0 0.0
2016-Aug-31 02:34N 39°54' W 075°12'0 0.0
2016-Aug-31 01:33N 39°54' W 075°12'0 0.0
2016-Aug-31 00:33N 39°54' W 075°12'0 0.0
2016-Aug-30 23:34N 39°54' W 075°12'0 0.0
2016-Aug-30 22:33N 39°54' W 075°12'0 0.0
2016-Aug-30 21:33N 39°54' W 075°12'0 0.0
2016-Aug-30 20:33N 39°54' W 075°12'0 0.0
2016-Aug-30 19:33N 39°54' W 075°12'1 0.7
2016-Aug-30 18:33N 39°53' W 075°12'0 0.0
2016-Aug-30 17:33N 39°53' W 075°12'0 0.0
2016-Aug-30 16:33N 39°53' W 075°12'1 0.7
2016-Aug-30 15:33N 39°54' W 075°12'0 0.0
2016-Aug-30 14:34N 39°54' W 075°12'0 0.0
2016-Aug-30 13:33N 39°54' W 075°12'4 3.9
2016-Aug-30 12:33N 39°51' W 075°16'2 2.3
2016-Aug-30 11:33N 39°52' W 075°13'0 0.0
2016-Aug-30 10:33N 39°52' W 075°13'0 0.0
2016-Aug-30 09:33N 39°52' W 075°13'0 0.0
2016-Aug-30 08:33N 39°52' W 075°13'0 0.0
2016-Aug-30 07:34N 39°52' W 075°13'0 0.0
2016-Aug-30 06:33N 39°52' W 075°13'0 0.0
2016-Aug-30 05:33N 39°52' W 075°13'0 0.2
2016-Aug-30 04:33N 39°52' W 075°13'0 0.0
2016-Aug-30 03:33N 39°52' W 075°13'0 0.0
2016-Aug-30 02:33N 39°52' W 075°13'0 0.0
2016-Aug-30 01:34N 39°52' W 075°13'0 0.0
2016-Aug-30 00:33N 39°52' W 075°13'0 0.1
2016-Aug-29 23:33N 39°52' W 075°13'0 0.1
2016-Aug-29 22:33N 39°52' W 075°13'0 0.0
2016-Aug-29 21:34N 39°52' W 075°13'0 0.0
2016-Aug-29 20:34N 39°52' W 075°13'0 0.1
2016-Aug-29 19:33N 39°52' W 075°13'0 0.0
2016-Aug-29 18:33N 39°52' W 075°13'0 0.1
2016-Aug-29 17:33N 39°52' W 075°13'0 0.1
2016-Aug-29 16:33N 39°52' W 075°13'0 0.0
2016-Aug-29 15:33N 39°52' W 075°13'0 0.0
2016-Aug-29 14:33N 39°52' W 075°13'0 0.1
2016-Aug-29 13:33N 39°52' W 075°13'0 0.0
2016-Aug-29 12:34N 39°52' W 075°13'0 0.0
2016-Aug-29 11:33N 39°52' W 075°13'0 0.2
2016-Aug-29 10:33N 39°52' W 075°13'0 0.1
2016-Aug-29 09:33N 39°52' W 075°13'0 0.0
2016-Aug-29 08:33N 39°52' W 075°13'0 0.0
2016-Aug-29 07:33N 39°52' W 075°13'0 0.0
2016-Aug-29 06:33N 39°52' W 075°13'0 0.1
2016-Aug-29 05:34N 39°52' W 075°13'0 0.1
2016-Aug-29 04:33N 39°52' W 075°13'0 0.1
2016-Aug-29 03:33N 39°52' W 075°13'0 0.0
2016-Aug-29 02:33N 39°52' W 075°13'0 0.0
2016-Aug-29 01:33N 39°52' W 075°13'0 0.0
2016-Aug-29 00:33N 39°52' W 075°13'0 0.0
2016-Aug-28 23:33N 39°52' W 075°13'0 0.0
2016-Aug-28 22:33N 39°52' W 075°13'0 0.2
2016-Aug-28 21:33N 39°52' W 075°13'0 0.2
2016-Aug-28 20:33N 39°52' W 075°13'3 2.7
2016-Aug-28 19:33N 39°55' W 075°13'0 0.0
2016-Aug-28 18:33N 39°55' W 075°13'0 0.0
2016-Aug-28 17:33N 39°55' W 075°13'0 0.0
2016-Aug-28 16:33N 39°55' W 075°13'0 0.0
2016-Aug-28 15:33N 39°55' W 075°13'0 0.0
2016-Aug-28 14:33N 39°55' W 075°13'1 0.5
2016-Aug-28 13:33N 39°54' W 075°13'2 2.5
2016-Aug-28 12:33N 39°52' W 075°14'2 2.4
2016-Aug-28 11:33N 39°54' W 075°13'6 5.7
2016-Aug-28 10:33N 39°51' W 075°19'10 9.7
2016-Aug-28 09:33N 39°45' W 075°29'9 8.9
2016-Aug-28 08:33N 39°37' W 075°35'6 5.9
2016-Aug-28 07:33N 39°33' W 075°40'8 8.1
2016-Aug-28 06:33N 39°32' W 075°50'9 9.0
2016-Aug-28 05:33N 39°27' W 075°60'9 9.4
2016-Aug-28 04:33N 39°21' W 076°10'9 8.8
2016-Aug-28 03:33N 39°13' W 076°15'8 7.9
2016-Aug-28 02:33N 39°10' W 076°24'8 8.1
2016-Aug-28 01:33N 39°13' W 076°33'1 1.2
2016-Aug-28 00:33N 39°13' W 076°35'0 0.0
2016-Aug-27 23:33N 39°13' W 076°35'0 0.0
2016-Aug-27 22:33N 39°13' W 076°35'0 0.0
2016-Aug-27 21:33N 39°13' W 076°35'0 0.0
2016-Aug-27 20:33N 39°13' W 076°35'0 0.0
2016-Aug-27 19:33N 39°13' W 076°35'0 0.0
2016-Aug-27 18:33N 39°13' W 076°35'0 0.0
2016-Aug-27 17:33N 39°13' W 076°35'0 0.0
2016-Aug-27 16:33N 39°13' W 076°35'0 0.0
2016-Aug-27 15:33N 39°13' W 076°35'1 1.2
2016-Aug-27 14:33N 39°13' W 076°34'2 1.6
2016-Aug-27 13:32N 39°15' W 076°33'0 0.0
2016-Aug-27 12:33N 39°15' W 076°33'0 0.0
2016-Aug-27 11:33N 39°15' W 076°33'0 0.0
2016-Aug-27 10:33N 39°15' W 076°33'0 0.0
2016-Aug-27 09:33N 39°15' W 076°33'0 0.0
2016-Aug-27 08:33N 39°15' W 076°33'0 0.0
2016-Aug-27 07:33N 39°15' W 076°33'0 0.0
2016-Aug-27 06:33N 39°15' W 076°33'0 0.0
2016-Aug-27 04:33N 39°15' W 076°33'0 0.0
2016-Aug-27 03:33N 39°15' W 076°33'0 0.0
2016-Aug-27 02:33N 39°15' W 076°34'0 0.1
2016-Aug-27 01:33N 39°15' W 076°33'0 0.0
2016-Aug-27 00:33N 39°15' W 076°33'0 0.0
2016-Aug-26 23:33N 39°15' W 076°33'0 0.1
2016-Aug-26 22:33N 39°15' W 076°33'0 0.1
2016-Aug-26 21:33N 39°15' W 076°33'0 0.0
2016-Aug-26 20:33N 39°15' W 076°33'0 0.0
2016-Aug-26 19:33N 39°15' W 076°33'0 0.0
2016-Aug-26 18:32N 39°15' W 076°33'0 0.0
2016-Aug-26 17:33N 39°15' W 076°33'0 0.0
2016-Aug-26 16:33N 39°15' W 076°33'0 0.0
2016-Aug-26 15:33N 39°15' W 076°33'0 0.0
2016-Aug-26 14:33N 39°15' W 076°33'1 0.7
2016-Aug-26 13:33N 39°14' W 076°34'0 0.0
2016-Aug-26 12:32N 39°14' W 076°34'0 0.1
2016-Aug-26 07:25N 39°15' W 076°34'0 0.0
2016-Aug-26 06:27N 39°15' W 076°34'0 0.0
2016-Aug-26 04:31N 39°15' W 076°34'0 0.0
2016-Aug-25 22:13N 39°15' W 076°34'0 0.0
2016-Aug-25 21:22N 39°15' W 076°34'0 0.0
2016-Aug-25 20:27N 39°15' W 076°34'0 0.0
2016-Aug-25 19:30N 39°15' W 076°34'0 0.0
2016-Aug-25 16:30N 39°15' W 076°34'0 0.0
2016-Aug-25 15:29N 39°15' W 076°34'0 0.0
2016-Aug-25 14:32N 39°15' W 076°34'0 0.0
2016-Aug-25 13:33N 39°15' W 076°34'0 0.0
2016-Aug-25 12:33N 39°15' W 076°34'0 0.3
2016-Aug-25 11:33N 39°14' W 076°34'0 0.0
2016-Aug-25 10:33N 39°14' W 076°34'1 0.8
2016-Aug-25 09:33N 39°15' W 076°33'0 0.0
2016-Aug-25 08:33N 39°15' W 076°33'0 0.0
2016-Aug-25 07:31N 39°15' W 076°33'0 0.0
2016-Aug-25 06:33N 39°15' W 076°33'0 0.0
2016-Aug-25 04:31N 39°15' W 076°33'0 0.0
2016-Aug-25 03:33N 39°15' W 076°33'0 0.0
2016-Aug-25 02:33N 39°15' W 076°33'1 0.9
2016-Aug-25 01:33N 39°14' W 076°33'9 9.2
2016-Aug-25 00:32N 39°10' W 076°22'9 9.4
2016-Aug-24 23:33N 39°16' W 076°14'1110.8
2016-Aug-24 22:33N 39°24' W 076°04'1110.9
2016-Aug-24 21:33N 39°31' W 075°53'9 9.1
2016-Aug-24 20:33N 39°33' W 075°42'7 6.8
2016-Aug-24 19:33N 39°35' W 075°34'6 6.3
2016-Aug-24 18:33N 39°41' W 075°31'8 7.6
2016-Aug-24 17:33N 39°48' W 075°26'9 9.3
2016-Aug-24 16:33N 39°51' W 075°15'1 0.9
2016-Aug-24 15:33N 39°51' W 075°14'2 1.8
2016-Aug-24 14:34N 39°51' W 075°16'0 0.0
2016-Aug-24 13:33N 39°51' W 075°16'2 2.4
2016-Aug-24 12:33N 39°52' W 075°13'6 6.2
2016-Aug-24 11:33N 39°57' W 075°08'0 0.1
2016-Aug-24 10:33N 39°57' W 075°08'0 0.0
2016-Aug-24 09:33N 39°57' W 075°08'0 0.0
2016-Aug-24 08:33N 39°57' W 075°08'0 0.0
2016-Aug-24 07:33N 39°57' W 075°08'0 0.1
2016-Aug-24 06:33N 39°57' W 075°08'0 0.0
2016-Aug-24 04:33N 39°57' W 075°08'0 0.0
2016-Aug-24 03:33N 39°57' W 075°08'0 0.0
2016-Aug-24 02:33N 39°57' W 075°08'0 0.0
2016-Aug-24 01:33N 39°57' W 075°08'0 0.0
2016-Aug-24 00:33N 39°57' W 075°08'0 0.1
2016-Aug-23 23:33N 39°57' W 075°08'0 0.1
2016-Aug-23 22:33N 39°57' W 075°08'0 0.0
2016-Aug-23 21:33N 39°57' W 075°08'0 0.0
2016-Aug-23 20:33N 39°57' W 075°08'0 0.0
2016-Aug-23 19:33N 39°57' W 075°08'0 0.0
2016-Aug-23 18:33N 39°57' W 075°08'0 0.1
2016-Aug-23 17:34N 39°57' W 075°08'0 0.0
2016-Aug-23 16:33N 39°57' W 075°08'0 0.0
2016-Aug-23 14:34N 39°57' W 075°08'0 0.0
2016-Aug-23 13:33N 39°57' W 075°08'0 0.0
2016-Aug-23 12:34N 39°57' W 075°08'0 0.0
2016-Aug-23 11:34N 39°57' W 075°08'0 0.1
2016-Aug-23 10:34N 39°57' W 075°08'0 0.0
2016-Aug-23 09:34N 39°57' W 075°08'0 0.0
2016-Aug-23 08:34N 39°57' W 075°08'0 0.0
2016-Aug-23 07:34N 39°57' W 075°08'0 0.0
2016-Aug-23 06:34N 39°57' W 075°08'0 0.1
2016-Aug-23 05:34N 39°57' W 075°08'0 0.1
2016-Aug-23 04:33N 39°57' W 075°08'0 0.0
2016-Aug-23 03:34N 39°57' W 075°08'0 0.0
2016-Aug-23 02:34N 39°57' W 075°08'0 0.0
2016-Aug-23 01:34N 39°57' W 075°08'0 0.0
2016-Aug-23 00:33N 39°57' W 075°08'0 0.0
2016-Aug-22 23:33N 39°57' W 075°08'0 0.1
2016-Aug-22 22:33N 39°57' W 075°08'0 0.1
2016-Aug-22 21:33N 39°57' W 075°08'0 0.0
2016-Aug-22 20:33N 39°57' W 075°08'0 0.0
2016-Aug-22 19:34N 39°57' W 075°08'0 0.0
2016-Aug-22 18:33N 39°57' W 075°08'0 0.1
2016-Aug-22 17:33N 39°57' W 075°08'0 0.1
2016-Aug-22 16:34N 39°57' W 075°08'0 0.0
2016-Aug-22 15:34N 39°57' W 075°08'0 0.0
2016-Aug-22 14:34N 39°57' W 075°08'0 0.0
2016-Aug-22 13:34N 39°57' W 075°08'0 0.0
2016-Aug-22 12:34N 39°57' W 075°08'0 0.1
2016-Aug-22 11:34N 39°56' W 075°08'0 0.0
2016-Aug-22 10:33N 39°57' W 075°08'0 0.1
2016-Aug-22 09:34N 39°57' W 075°08'0 0.1
2016-Aug-22 08:33N 39°57' W 075°08'0 0.0
2016-Aug-22 07:33N 39°57' W 075°08'0 0.0
2016-Aug-22 06:34N 39°57' W 075°08'7 7.0
2016-Aug-22 05:33N 39°51' W 075°14'1111.3
2016-Aug-22 04:34N 39°47' W 075°28'7 6.8
2016-Aug-22 03:33N 39°41' W 075°31'9 9.3
2016-Aug-22 02:34N 39°31' W 075°33'9 9.0
2016-Aug-22 01:33N 39°23' W 075°29'9 9.0
2016-Aug-22 00:33N 39°16' W 075°21'9 9.3
2016-Aug-21 23:33N 39°09' W 075°14'9 8.8
2016-Aug-21 22:32N 39°01' W 075°09'8 8.3
2016-Aug-21 21:33N 38°53' W 075°04'7 7.2
2016-Aug-21 20:34N 38°48' W 074°58'10 8.8
2016-Aug-21 19:27N 38°53' W 074°46'49 9.7
2016-Aug-21 14:25N 39°31' W 074°07'910.0
2016-Aug-21 13:33N 39°38' W 074°02'10 9.9
2016-Aug-21 12:34N 39°48' W 073°59'10 9.9
2016-Aug-21 11:33N 39°58' W 073°56'32 9.6
2016-Aug-21 08:14N 40°30' W 073°56'710.4
2016-Aug-21 07:33N 40°35' W 074°02'1110.6
2016-Aug-21 06:34N 40°45' W 074°01'  

Dump ship's entire track history